createdAt,value
2022-11-06T00:00:16.889Z,4.34
2022-11-06T00:01:16.357Z,4.36
2022-11-06T00:02:20.395Z,4.36
2022-11-06T00:03:16.701Z,4.43
2022-11-06T00:04:17.284Z,4.48
2022-11-06T00:05:16.756Z,4.48
2022-11-06T00:06:17.208Z,4.40
2022-11-06T00:07:16.661Z,4.13
2022-11-06T00:08:17.095Z,4.05
2022-11-06T00:09:16.520Z,3.99
2022-11-06T00:10:16.976Z,4.02
2022-11-06T00:11:16.452Z,4.05
2022-11-06T00:12:17.270Z,4.09
2022-11-06T00:13:16.729Z,4.09
2022-11-06T00:14:17.185Z,4.08
2022-11-06T00:15:16.681Z,4.05
2022-11-06T00:16:17.146Z,4.00
2022-11-06T00:17:16.609Z,4.03
2022-11-06T00:18:17.084Z,4.05
2022-11-06T00:19:16.532Z,4.08
2022-11-06T00:20:16.969Z,4.06
2022-11-06T00:21:16.409Z,4.05
2022-11-06T00:22:17.228Z,4.02
2022-11-06T00:23:16.696Z,4.00
2022-11-06T00:24:17.133Z,3.96
2022-11-06T00:25:16.572Z,3.89
2022-11-06T00:26:17.074Z,3.89
2022-11-06T00:27:16.571Z,3.88
2022-11-06T00:28:17.041Z,3.88
2022-11-06T00:29:16.494Z,3.93
2022-11-06T00:30:16.963Z,3.92
2022-11-06T00:31:16.456Z,3.89
2022-11-06T00:32:16.741Z,3.92
2022-11-06T00:33:17.219Z,3.92
2022-11-06T00:34:16.662Z,3.93
2022-11-06T00:35:17.105Z,3.93
2022-11-06T00:36:16.588Z,3.86
2022-11-06T00:37:17.015Z,3.83
2022-11-06T00:38:16.491Z,3.79
2022-11-06T00:39:16.936Z,3.77
2022-11-06T00:40:16.400Z,3.72
2022-11-06T00:41:16.904Z,3.72
2022-11-06T00:42:16.463Z,3.71
2022-11-06T00:43:16.935Z,3.75
2022-11-06T00:44:16.395Z,3.69
2022-11-06T00:45:16.878Z,3.67
2022-11-06T00:46:16.342Z,3.60
2022-11-06T00:47:16.801Z,3.58
2022-11-06T00:48:17.268Z,3.49
2022-11-06T00:49:16.701Z,3.44
2022-11-06T00:50:17.121Z,3.44
2022-11-06T00:51:16.562Z,3.46
2022-11-06T00:52:17.052Z,3.46
2022-11-06T00:53:16.506Z,3.46
2022-11-06T00:54:16.964Z,3.51
2022-11-06T00:55:16.441Z,3.50
2022-11-06T00:56:16.910Z,3.51
2022-11-06T00:57:16.409Z,3.50
2022-11-06T00:58:16.913Z,3.47
2022-11-06T00:59:16.400Z,3.41
2022-11-06T01:00:17.213Z,3.40
2022-11-06T01:01:16.743Z,3.36
2022-11-06T01:02:16.523Z,3.30
2022-11-06T01:03:17.332Z,3.22
2022-11-06T01:04:16.788Z,3.20
2022-11-06T01:05:17.213Z,3.20
2022-11-06T01:06:16.669Z,3.17
2022-11-06T01:07:17.097Z,3.14
2022-11-06T01:08:16.537Z,3.13
2022-11-06T01:09:17.025Z,3.09
2022-11-06T01:10:16.535Z,3.00
2022-11-06T01:11:17.027Z,2.98
2022-11-06T01:12:16.758Z,3.00
2022-11-06T01:13:17.311Z,3.04
2022-11-06T01:14:16.807Z,2.98
2022-11-06T01:15:17.305Z,2.98
2022-11-06T01:16:16.781Z,2.98
2022-11-06T01:17:17.239Z,2.96
2022-11-06T01:18:16.668Z,2.95
2022-11-06T01:19:17.090Z,2.84
2022-11-06T01:20:16.545Z,2.79
2022-11-06T01:21:16.982Z,2.78
2022-11-06T01:22:16.632Z,2.74
2022-11-06T01:23:17.217Z,2.71
2022-11-06T01:24:16.765Z,2.74
2022-11-06T01:25:17.275Z,2.74
2022-11-06T01:26:24.599Z,2.71
2022-11-06T01:27:27.854Z,2.71
2022-11-06T01:28:16.429Z,2.71
2022-11-06T01:29:16.931Z,2.68
2022-11-06T01:30:16.417Z,2.71
2022-11-06T01:31:16.861Z,2.75
2022-11-06T01:32:16.737Z,2.75
2022-11-06T01:33:17.233Z,2.78
2022-11-06T01:34:16.678Z,2.74
2022-11-06T01:35:17.105Z,2.75
2022-11-06T01:36:16.547Z,2.74
2022-11-06T01:37:16.989Z,2.78
2022-11-06T01:38:16.471Z,2.68
2022-11-06T01:39:16.933Z,2.67
2022-11-06T01:40:16.399Z,2.57
2022-11-06T01:41:16.885Z,2.47
2022-11-06T01:42:17.194Z,2.48
2022-11-06T01:43:16.664Z,2.48
2022-11-06T01:44:17.138Z,2.55
2022-11-06T01:45:16.587Z,2.55
2022-11-06T01:46:17.032Z,2.58
2022-11-06T01:47:16.456Z,2.58
2022-11-06T01:48:16.873Z,2.50
2022-11-06T01:49:16.312Z,2.48
2022-11-06T01:50:17.093Z,2.38
2022-11-06T01:51:16.516Z,2.36
2022-11-06T01:52:17.264Z,2.34
2022-11-06T01:53:16.727Z,2.37
2022-11-06T01:54:17.197Z,2.41
2022-11-06T01:55:16.673Z,2.48
2022-11-06T01:56:17.169Z,2.47
2022-11-06T01:57:16.636Z,2.50
2022-11-06T01:58:17.092Z,2.48
2022-11-06T01:59:16.575Z,2.41
2022-11-06T02:00:17.014Z,2.34
2022-11-06T02:01:16.472Z,2.36
2022-11-06T02:02:17.175Z,2.33
2022-11-06T02:03:16.861Z,2.30
2022-11-06T02:04:16.285Z,2.26
2022-11-06T02:05:16.716Z,2.26
2022-11-06T02:06:17.149Z,2.26
2022-11-06T02:07:16.621Z,2.30
2022-11-06T02:08:17.117Z,2.29
2022-11-06T02:09:16.608Z,2.26
2022-11-06T02:10:17.103Z,2.29
2022-11-06T02:11:16.553Z,2.30
2022-11-06T02:12:17.059Z,2.38
2022-11-06T02:13:16.537Z,2.38
2022-11-06T02:14:16.991Z,2.41
2022-11-06T02:15:16.412Z,2.44
2022-11-06T02:16:16.875Z,2.48
2022-11-06T02:17:16.323Z,2.50
2022-11-06T02:18:16.780Z,2.45
2022-11-06T02:19:17.219Z,2.47
2022-11-06T02:20:16.663Z,2.51
2022-11-06T02:21:17.113Z,2.51
2022-11-06T02:22:16.748Z,2.51
2022-11-06T02:23:17.248Z,2.55
2022-11-06T02:24:16.734Z,2.54
2022-11-06T02:25:17.208Z,2.54
2022-11-06T02:26:16.667Z,2.54
2022-11-06T02:27:17.141Z,2.54
2022-11-06T02:28:16.617Z,2.54
2022-11-06T02:29:17.109Z,2.54
2022-11-06T02:30:16.582Z,2.54
2022-11-06T02:31:17.033Z,2.54
2022-11-06T02:32:16.588Z,2.50
2022-11-06T02:33:17.025Z,2.38
2022-11-06T02:34:16.487Z,2.37
2022-11-06T02:35:16.927Z,2.38
2022-11-06T02:36:16.381Z,2.29
2022-11-06T02:37:16.862Z,2.19
2022-11-06T02:38:16.510Z,2.06
2022-11-06T02:39:17.152Z,2.00
2022-11-06T02:40:16.622Z,2.00
2022-11-06T02:41:17.092Z,2.03
2022-11-06T02:42:16.403Z,2.05
2022-11-06T02:43:16.901Z,2.07
2022-11-06T02:44:16.353Z,2.09
2022-11-06T02:45:16.835Z,2.13
2022-11-06T02:46:17.268Z,2.13
2022-11-06T02:47:16.719Z,2.10
2022-11-06T02:48:17.175Z,2.10
2022-11-06T02:49:16.614Z,2.09
2022-11-06T02:50:17.069Z,2.06
2022-11-06T02:51:16.533Z,2.06
2022-11-06T02:52:16.538Z,2.10
2022-11-06T02:53:17.011Z,1.99
2022-11-06T02:54:16.479Z,2.02
2022-11-06T02:55:16.982Z,1.98
2022-11-06T02:56:16.448Z,1.96
2022-11-06T02:57:16.928Z,1.95
2022-11-06T02:58:16.436Z,1.96
2022-11-06T02:59:16.905Z,1.92
2022-11-06T03:00:16.388Z,1.95
2022-11-06T03:01:16.943Z,1.92
2022-11-06T03:02:17.009Z,1.92
2022-11-06T03:03:16.584Z,1.88
2022-11-06T03:04:17.055Z,1.83
2022-11-06T03:05:16.497Z,1.85
2022-11-06T03:06:16.939Z,1.88
2022-11-06T03:07:16.431Z,1.86
2022-11-06T03:08:16.981Z,1.72
2022-11-06T03:09:16.483Z,1.69
2022-11-06T03:10:16.968Z,1.65
2022-11-06T03:11:16.426Z,1.67
2022-11-06T03:12:16.709Z,1.61
2022-11-06T03:13:17.479Z,1.58
2022-11-06T03:14:16.950Z,1.61
2022-11-06T03:15:16.415Z,1.57
2022-11-06T03:16:16.840Z,1.54
2022-11-06T03:17:17.295Z,1.51
2022-11-06T03:18:17.015Z,1.53
2022-11-06T03:19:16.799Z,1.48
2022-11-06T03:20:17.251Z,1.41
2022-11-06T03:21:16.723Z,1.44
2022-11-06T03:22:16.437Z,1.40
2022-11-06T03:23:16.921Z,1.40
2022-11-06T03:24:16.384Z,1.36
2022-11-06T03:25:16.851Z,1.39
2022-11-06T03:26:16.304Z,1.36
2022-11-06T03:27:16.788Z,1.43
2022-11-06T03:28:17.300Z,1.47
2022-11-06T03:29:16.740Z,1.46
2022-11-06T03:30:17.213Z,1.51
2022-11-06T03:31:16.658Z,1.53
2022-11-06T03:32:16.363Z,1.55
2022-11-06T03:33:16.813Z,1.55
2022-11-06T03:34:17.278Z,1.57
2022-11-06T03:35:16.717Z,1.55
2022-11-06T03:36:17.200Z,1.55
2022-11-06T03:37:16.698Z,1.51
2022-11-06T03:38:17.193Z,1.48
2022-11-06T03:39:16.677Z,1.50
2022-11-06T03:40:17.141Z,1.54
2022-11-06T03:41:16.586Z,1.50
2022-11-06T03:42:16.780Z,1.47
2022-11-06T03:43:17.218Z,1.48
2022-11-06T03:44:16.658Z,1.47
2022-11-06T03:45:17.091Z,1.47
2022-11-06T03:46:16.512Z,1.46
2022-11-06T03:47:16.964Z,1.41
2022-11-06T03:48:16.641Z,1.39
2022-11-06T03:49:16.420Z,1.40
2022-11-06T03:50:16.866Z,1.37
2022-11-06T03:51:16.417Z,1.39
2022-11-06T03:52:17.064Z,1.41
2022-11-06T03:53:16.550Z,1.41
2022-11-06T03:54:16.329Z,1.43
2022-11-06T03:55:16.803Z,1.40
2022-11-06T03:56:17.302Z,1.43
2022-11-06T03:57:16.755Z,1.41
2022-11-06T03:58:17.215Z,1.44
2022-11-06T03:59:16.713Z,1.44
2022-11-06T04:00:16.965Z,1.44
2022-11-06T04:01:16.420Z,1.43
2022-11-06T04:02:17.307Z,1.43
2022-11-06T04:03:16.985Z,1.43
2022-11-06T04:04:16.452Z,1.43
2022-11-06T04:05:16.971Z,1.41
2022-11-06T04:06:16.445Z,1.41
2022-11-06T04:07:16.916Z,1.40
2022-11-06T04:08:16.527Z,1.37
2022-11-06T04:09:17.249Z,1.36
2022-11-06T04:10:16.744Z,1.34
2022-11-06T04:11:17.211Z,1.33
2022-11-06T04:12:16.907Z,1.29
2022-11-06T04:13:16.361Z,1.24
2022-11-06T04:14:16.343Z,1.18
2022-11-06T04:15:16.790Z,1.13
2022-11-06T04:16:17.248Z,1.18
2022-11-06T04:17:16.702Z,1.20
2022-11-06T04:18:17.157Z,1.20
2022-11-06T04:19:16.618Z,1.18
2022-11-06T04:20:16.517Z,1.16
2022-11-06T04:21:17.004Z,1.18
2022-11-06T04:22:16.824Z,1.19
2022-11-06T04:23:16.360Z,1.15
2022-11-06T04:24:16.844Z,1.12
2022-11-06T04:25:16.313Z,1.10
2022-11-06T04:26:16.785Z,1.03
2022-11-06T04:27:17.249Z,1.07
2022-11-06T04:28:16.672Z,1.13
2022-11-06T04:29:17.149Z,1.16
2022-11-06T04:30:16.587Z,1.20
2022-11-06T04:31:17.020Z,1.19
2022-11-06T04:32:16.927Z,1.26
2022-11-06T04:33:16.377Z,1.22
2022-11-06T04:34:16.804Z,1.26
2022-11-06T04:35:17.254Z,1.31
2022-11-06T04:36:16.724Z,1.34
2022-11-06T04:37:17.214Z,1.33
2022-11-06T04:38:16.893Z,1.39
2022-11-06T04:39:16.533Z,1.40
2022-11-06T04:40:16.993Z,1.34
2022-11-06T04:41:16.465Z,1.36
2022-11-06T04:42:16.478Z,1.33
2022-11-06T04:43:16.949Z,1.31
2022-11-06T04:44:16.375Z,1.26
2022-11-06T04:45:16.858Z,1.31
2022-11-06T04:46:16.284Z,1.33
2022-11-06T04:47:16.714Z,1.30
2022-11-06T04:48:17.145Z,1.29
2022-11-06T04:49:16.584Z,1.26
2022-11-06T04:50:17.021Z,1.29
2022-11-06T04:51:16.454Z,1.34
2022-11-06T04:52:17.156Z,1.36
2022-11-06T04:53:16.593Z,1.37
2022-11-06T04:54:17.082Z,1.36
2022-11-06T04:55:16.542Z,1.33
2022-11-06T04:56:20.141Z,1.34
2022-11-06T04:57:16.350Z,1.34
2022-11-06T04:58:16.825Z,1.33
2022-11-06T04:59:17.316Z,1.31
2022-11-06T05:00:16.760Z,1.31
2022-11-06T05:01:17.219Z,1.30
2022-11-06T05:02:17.186Z,1.27
2022-11-06T05:03:16.814Z,1.26
2022-11-06T05:04:17.262Z,1.24
2022-11-06T05:05:16.710Z,1.23
2022-11-06T05:06:17.204Z,1.20
2022-11-06T05:07:16.703Z,1.20
2022-11-06T05:08:17.162Z,1.18
2022-11-06T05:09:16.614Z,1.20
2022-11-06T05:10:17.089Z,1.22
2022-11-06T05:11:16.561Z,1.22
2022-11-06T05:12:17.189Z,1.24
2022-11-06T05:13:16.636Z,1.23
2022-11-06T05:14:17.055Z,1.22
2022-11-06T05:15:16.491Z,1.19
2022-11-06T05:16:16.924Z,1.22
2022-11-06T05:17:16.353Z,1.16
2022-11-06T05:18:16.635Z,1.18
2022-11-06T05:19:16.548Z,1.13
2022-11-06T05:20:17.023Z,1.09
2022-11-06T05:21:16.512Z,1.09
2022-11-06T05:22:16.952Z,1.10
2022-11-06T05:23:16.448Z,1.13
2022-11-06T05:24:16.458Z,1.10
2022-11-06T05:25:16.946Z,1.06
2022-11-06T05:26:16.435Z,1.09
2022-11-06T05:27:16.877Z,1.15
2022-11-06T05:28:16.438Z,1.12
2022-11-06T05:29:17.076Z,1.12
2022-11-06T05:30:16.540Z,1.12
2022-11-06T05:31:16.980Z,1.10
2022-11-06T05:32:16.557Z,1.07
2022-11-06T05:33:17.001Z,1.07
2022-11-06T05:34:16.470Z,1.09
2022-11-06T05:35:16.911Z,1.13
2022-11-06T05:36:16.427Z,1.16
2022-11-06T05:37:16.877Z,1.19
2022-11-06T05:38:16.586Z,1.20
2022-11-06T05:39:16.392Z,1.16
2022-11-06T05:40:16.886Z,1.20
2022-11-06T05:41:16.323Z,1.20
2022-11-06T05:42:17.078Z,1.22
2022-11-06T05:43:16.498Z,1.26
2022-11-06T05:44:16.951Z,1.31
2022-11-06T05:45:16.393Z,1.31
2022-11-06T05:46:42.595Z,1.33
2022-11-06T05:47:17.298Z,1.34
2022-11-06T05:48:16.729Z,1.36
2022-11-06T05:49:17.198Z,1.39
2022-11-06T05:50:16.699Z,1.40
2022-11-06T05:51:17.143Z,1.39
2022-11-06T05:52:16.821Z,1.40
2022-11-06T05:53:17.278Z,1.33
2022-11-06T05:54:16.755Z,1.33
2022-11-06T05:55:17.225Z,1.33
2022-11-06T05:56:16.682Z,1.30
2022-11-06T05:57:17.124Z,1.30
2022-11-06T05:58:16.722Z,1.26
2022-11-06T05:59:17.243Z,1.29
2022-11-06T06:00:16.685Z,1.27
2022-11-06T06:01:17.117Z,1.27
2022-11-06T06:02:17.071Z,1.24
2022-11-06T06:03:16.828Z,1.26
2022-11-06T06:04:16.299Z,1.26
2022-11-06T06:05:16.771Z,1.27
2022-11-06T06:06:17.282Z,1.27
2022-11-06T06:07:16.753Z,1.31
2022-11-06T06:08:17.242Z,1.36
2022-11-06T06:09:16.736Z,1.34
2022-11-06T06:10:17.212Z,1.34
2022-11-06T06:11:16.653Z,1.34
2022-11-06T06:12:17.254Z,1.33
2022-11-06T06:13:16.684Z,1.31
2022-11-06T06:14:17.106Z,1.31
2022-11-06T06:15:16.563Z,1.29
2022-11-06T06:16:16.988Z,1.30
2022-11-06T06:17:16.415Z,1.33
2022-11-06T06:18:16.976Z,1.33
2022-11-06T06:19:16.473Z,1.34
2022-11-06T06:20:16.937Z,1.39
2022-11-06T06:21:16.641Z,1.36
2022-11-06T06:22:17.227Z,1.39
2022-11-06T06:23:16.706Z,1.37
2022-11-06T06:24:17.570Z,1.39
2022-11-06T06:25:22.605Z,1.40
2022-11-06T06:26:16.718Z,1.40
2022-11-06T06:27:16.614Z,1.46
2022-11-06T06:28:17.060Z,1.47
2022-11-06T06:29:16.530Z,1.40
2022-11-06T06:30:16.969Z,1.48
2022-11-06T06:31:16.459Z,1.48
2022-11-06T06:32:16.303Z,1.60
2022-11-06T06:33:16.777Z,1.60
2022-11-06T06:34:17.254Z,1.57
2022-11-06T06:35:16.724Z,1.47
2022-11-06T06:36:17.225Z,1.48
2022-11-06T06:37:20.108Z,1.50
2022-11-06T06:38:16.842Z,1.55
2022-11-06T06:39:16.321Z,1.58
2022-11-06T06:40:16.777Z,1.60
2022-11-06T06:41:17.205Z,1.48
2022-11-06T06:42:16.591Z,1.55
2022-11-06T06:43:17.009Z,1.60
2022-11-06T06:44:16.449Z,1.54
2022-11-06T06:45:16.915Z,1.54
2022-11-06T06:46:16.357Z,1.64
2022-11-06T06:47:16.826Z,1.57
2022-11-06T06:48:16.425Z,1.53
2022-11-06T06:49:16.337Z,1.61
2022-11-06T06:50:16.825Z,1.65
2022-11-06T06:51:21.115Z,1.61
2022-11-06T06:52:16.912Z,1.62
2022-11-06T06:53:16.368Z,1.64
2022-11-06T06:54:16.808Z,1.65
2022-11-06T06:55:17.255Z,1.72
2022-11-06T06:56:16.731Z,1.71
2022-11-06T06:57:17.161Z,1.72
2022-11-06T06:58:17.961Z,1.74
2022-11-06T06:59:16.662Z,1.82
2022-11-06T07:00:17.125Z,1.93
2022-11-06T07:01:16.707Z,1.92
2022-11-06T07:02:17.008Z,1.90
2022-11-06T07:03:16.606Z,1.90
2022-11-06T07:04:17.076Z,1.92
2022-11-06T07:05:16.584Z,1.95
2022-11-06T07:06:17.084Z,2.09
2022-11-06T07:07:16.537Z,2.10
2022-11-06T07:08:17.074Z,2.07
2022-11-06T07:09:16.553Z,2.05
2022-11-06T07:10:16.975Z,2.00
2022-11-06T07:11:16.425Z,1.90
2022-11-06T07:12:16.305Z,1.90
2022-11-06T07:13:16.820Z,1.99
2022-11-06T07:14:17.341Z,2.00
2022-11-06T07:15:16.837Z,1.92
2022-11-06T07:16:16.342Z,1.95
2022-11-06T07:17:16.836Z,2.00
2022-11-06T07:18:16.520Z,1.99
2022-11-06T07:19:17.070Z,2.03
2022-11-06T07:20:16.555Z,1.96
2022-11-06T07:21:17.019Z,2.02
2022-11-06T07:22:17.258Z,2.03
2022-11-06T07:23:17.051Z,1.95
2022-11-06T07:24:16.500Z,2.02
2022-11-06T07:25:16.969Z,1.99
2022-11-06T07:26:16.402Z,2.05
2022-11-06T07:27:16.832Z,2.05
2022-11-06T07:28:17.686Z,2.09
2022-11-06T07:29:16.725Z,2.05
2022-11-06T07:30:16.351Z,2.05
2022-11-06T07:31:16.842Z,2.00
2022-11-06T07:32:16.584Z,2.09
2022-11-06T07:33:17.053Z,2.24
2022-11-06T07:34:16.518Z,2.23
2022-11-06T07:35:16.980Z,2.20
2022-11-06T07:36:16.462Z,2.29
2022-11-06T07:37:16.893Z,2.27
2022-11-06T07:38:16.474Z,2.27
2022-11-06T07:39:17.302Z,2.26
2022-11-06T07:40:16.745Z,2.30
2022-11-06T07:41:17.189Z,2.38
2022-11-06T07:42:16.538Z,2.32
2022-11-06T07:43:16.984Z,2.37
2022-11-06T07:44:16.470Z,2.43
2022-11-06T07:45:16.934Z,2.41
2022-11-06T07:46:16.402Z,2.36
2022-11-06T07:47:16.869Z,2.51
2022-11-06T07:48:16.723Z,2.43
2022-11-06T07:49:16.633Z,2.47
2022-11-06T07:50:17.098Z,2.55
2022-11-06T07:51:16.566Z,2.53
2022-11-06T07:52:16.344Z,2.53
2022-11-06T07:53:16.871Z,2.60
2022-11-06T07:54:16.320Z,2.57
2022-11-06T07:55:16.772Z,2.81
2022-11-06T07:56:17.213Z,2.71
2022-11-06T07:57:16.674Z,2.76
2022-11-06T07:58:17.119Z,2.89
2022-11-06T07:59:16.585Z,2.76
2022-11-06T08:00:17.074Z,2.81
2022-11-06T08:01:18.441Z,2.75
2022-11-06T08:02:17.420Z,2.74
2022-11-06T08:03:17.020Z,2.85
2022-11-06T08:04:16.506Z,2.75
2022-11-06T08:05:16.954Z,2.82
2022-11-06T08:06:16.385Z,2.86
2022-11-06T08:07:16.841Z,2.89
2022-11-06T08:08:17.325Z,2.96
2022-11-06T08:09:16.765Z,3.03
2022-11-06T08:10:17.206Z,3.03
2022-11-06T08:11:16.632Z,2.93
2022-11-06T08:12:16.375Z,2.89
2022-11-06T08:13:16.856Z,3.02
2022-11-06T08:14:16.309Z,3.03
2022-11-06T08:15:16.770Z,3.10
2022-11-06T08:16:17.251Z,3.06
2022-11-06T08:17:16.721Z,3.12
2022-11-06T08:18:17.540Z,3.10
2022-11-06T08:19:16.536Z,3.28
2022-11-06T08:20:16.998Z,3.17
2022-11-06T08:21:16.428Z,3.31
2022-11-06T08:22:16.316Z,3.36
2022-11-06T08:23:16.789Z,3.31
2022-11-06T08:24:21.668Z,3.36
2022-11-06T08:25:16.684Z,3.40
2022-11-06T08:26:17.144Z,3.46
2022-11-06T08:27:16.586Z,3.40
2022-11-06T08:28:17.072Z,3.55
2022-11-06T08:29:16.565Z,3.55
2022-11-06T08:30:17.029Z,3.44
2022-11-06T08:31:16.635Z,3.46
2022-11-06T08:32:16.349Z,3.69
2022-11-06T08:33:16.807Z,3.72
2022-11-06T08:34:17.304Z,3.75
2022-11-06T08:35:16.734Z,3.77
2022-11-06T08:36:17.174Z,3.81
2022-11-06T08:37:16.609Z,3.83
2022-11-06T08:38:17.341Z,4.03
2022-11-06T08:39:16.905Z,4.08
2022-11-06T08:40:16.364Z,4.02
2022-11-06T08:41:16.797Z,4.09
2022-11-06T08:42:17.257Z,4.00
2022-11-06T08:43:16.956Z,4.12
2022-11-06T08:44:16.827Z,4.06
2022-11-06T08:45:17.297Z,4.05
2022-11-06T08:46:16.792Z,4.33
2022-11-06T08:47:17.249Z,4.40
2022-11-06T08:48:16.748Z,4.43
2022-11-06T08:49:16.680Z,4.27
2022-11-06T08:50:17.153Z,4.44
2022-11-06T08:51:16.585Z,4.40
2022-11-06T08:52:16.885Z,4.43
2022-11-06T08:53:16.722Z,4.38
2022-11-06T08:54:17.266Z,4.48
2022-11-06T08:55:16.707Z,4.57
2022-11-06T08:56:17.177Z,4.54
2022-11-06T08:57:16.659Z,4.58
2022-11-06T08:58:17.165Z,4.75
2022-11-06T08:59:16.612Z,4.82
2022-11-06T09:00:17.077Z,4.78
2022-11-06T09:01:16.620Z,4.85
2022-11-06T09:02:17.170Z,4.91
2022-11-06T09:03:17.047Z,4.82
2022-11-06T09:04:17.061Z,4.99
2022-11-06T09:05:16.485Z,5.13
2022-11-06T09:06:16.948Z,5.10
2022-11-06T09:07:16.395Z,5.07
2022-11-06T09:08:16.828Z,5.07
2022-11-06T09:09:17.282Z,5.24
2022-11-06T09:10:16.738Z,5.03
2022-11-06T09:11:17.177Z,5.23
2022-11-06T09:12:16.342Z,5.28
2022-11-06T09:13:17.195Z,5.19
2022-11-06T09:14:17.183Z,5.35
2022-11-06T09:15:16.655Z,5.43
2022-11-06T09:16:17.119Z,5.22
2022-11-06T09:17:16.601Z,5.30
2022-11-06T09:18:17.077Z,5.30
2022-11-06T09:19:16.537Z,5.37
2022-11-06T09:20:17.017Z,5.35
2022-11-06T09:21:16.439Z,5.61
2022-11-06T09:22:16.520Z,5.37
2022-11-06T09:23:17.188Z,5.34
2022-11-06T09:24:16.997Z,5.51
2022-11-06T09:25:16.453Z,5.43
2022-11-06T09:26:16.918Z,5.55
2022-11-06T09:27:16.380Z,5.58
2022-11-06T09:28:16.844Z,5.55
2022-11-06T09:29:16.300Z,5.50
2022-11-06T09:30:16.940Z,5.58
2022-11-06T09:31:16.417Z,5.58
2022-11-06T09:32:17.264Z,5.62
2022-11-06T09:33:17.010Z,5.62
2022-11-06T09:34:16.868Z,5.70
2022-11-06T09:35:16.326Z,5.68
2022-11-06T09:36:16.775Z,5.93
2022-11-06T09:37:17.198Z,5.82
2022-11-06T09:38:16.638Z,5.78
2022-11-06T09:39:17.086Z,5.95
2022-11-06T09:40:16.508Z,5.81
2022-11-06T09:41:16.963Z,5.72
2022-11-06T09:42:16.741Z,6.21
2022-11-06T09:43:20.955Z,6.20
2022-11-06T09:44:16.814Z,5.99
2022-11-06T09:45:17.285Z,5.95
2022-11-06T09:46:16.762Z,5.98
2022-11-06T09:47:17.254Z,6.16
2022-11-06T09:48:16.722Z,6.13
2022-11-06T09:49:17.171Z,6.05
2022-11-06T09:50:16.603Z,6.08
2022-11-06T09:51:17.025Z,6.09
2022-11-06T09:52:16.518Z,6.20
2022-11-06T09:53:16.515Z,6.13
2022-11-06T09:54:17.106Z,6.06
2022-11-06T09:55:16.660Z,6.27
2022-11-06T09:56:17.126Z,6.20
2022-11-06T09:57:16.597Z,6.30
2022-11-06T09:58:17.173Z,6.27
2022-11-06T09:59:16.737Z,6.45
2022-11-06T10:00:17.234Z,6.52
2022-11-06T10:01:22.216Z,6.48
2022-11-06T10:02:16.473Z,6.17
2022-11-06T10:03:17.229Z,6.21
2022-11-06T10:04:16.693Z,6.33
2022-11-06T10:05:17.207Z,6.54
2022-11-06T10:06:16.644Z,6.75
2022-11-06T10:07:17.077Z,6.84
2022-11-06T10:08:16.814Z,6.81
2022-11-06T10:09:16.447Z,6.89
2022-11-06T10:10:16.882Z,6.74
2022-11-06T10:11:16.396Z,6.58
2022-11-06T10:12:17.099Z,6.71
2022-11-06T10:13:17.881Z,6.82
2022-11-06T10:14:16.534Z,6.98
2022-11-06T10:15:17.036Z,6.99
2022-11-06T10:16:16.532Z,6.76
2022-11-06T10:17:17.069Z,6.85
2022-11-06T10:18:16.762Z,6.85
2022-11-06T10:19:16.684Z,6.91
2022-11-06T10:20:19.772Z,6.88
2022-11-06T10:21:16.426Z,6.79
2022-11-06T10:22:17.258Z,6.82
2022-11-06T10:23:16.692Z,6.88
2022-11-06T10:24:17.157Z,6.89
2022-11-06T10:25:16.609Z,6.94
2022-11-06T10:26:17.088Z,6.99
2022-11-06T10:27:16.581Z,6.91
2022-11-06T10:28:17.101Z,6.94
2022-11-06T10:29:16.586Z,6.94
2022-11-06T10:30:17.064Z,7.12
2022-11-06T10:31:16.546Z,6.99
2022-11-06T10:32:16.928Z,7.03
2022-11-06T10:33:16.371Z,7.07
2022-11-06T10:34:16.860Z,6.92
2022-11-06T10:35:16.288Z,6.99
2022-11-06T10:36:16.712Z,7.05
2022-11-06T10:37:17.141Z,7.17
2022-11-06T10:38:17.029Z,7.07
2022-11-06T10:39:16.965Z,7.10
2022-11-06T10:40:16.438Z,7.00
2022-11-06T10:41:16.945Z,7.09
2022-11-06T10:42:17.256Z,7.15
2022-11-06T10:43:16.724Z,7.22
2022-11-06T10:44:17.209Z,7.15
2022-11-06T10:45:16.683Z,7.10
2022-11-06T10:46:17.160Z,7.06
2022-11-06T10:47:16.593Z,7.20
2022-11-06T10:48:17.120Z,7.19
2022-11-06T10:49:16.563Z,7.33
2022-11-06T10:50:17.011Z,7.30
2022-11-06T10:51:16.450Z,7.26
2022-11-06T10:52:17.250Z,7.27
2022-11-06T10:53:16.683Z,7.28
2022-11-06T10:54:17.135Z,7.14
2022-11-06T10:55:16.674Z,7.14
2022-11-06T10:56:20.931Z,7.16
2022-11-06T10:57:16.889Z,7.24
2022-11-06T10:58:17.179Z,7.22
2022-11-06T10:59:17.057Z,7.15
2022-11-06T11:00:16.559Z,7.29
2022-11-06T11:01:17.037Z,7.33
2022-11-06T11:02:16.903Z,7.54
2022-11-06T11:03:16.504Z,7.40
2022-11-06T11:04:16.969Z,7.50
2022-11-06T11:05:16.431Z,7.38
2022-11-06T11:06:16.858Z,7.35
2022-11-06T11:07:20.530Z,7.43
2022-11-06T11:08:17.295Z,7.31
2022-11-06T11:09:16.742Z,7.15
2022-11-06T11:10:17.273Z,7.16
2022-11-06T11:11:16.784Z,7.24
2022-11-06T11:12:16.538Z,7.17
2022-11-06T11:13:17.033Z,7.19
2022-11-06T11:14:16.541Z,7.23
2022-11-06T11:15:17.016Z,7.07
2022-11-06T11:16:16.464Z,7.13
2022-11-06T11:17:16.910Z,7.17
2022-11-06T11:18:16.631Z,7.16
2022-11-06T11:19:16.882Z,7.16
2022-11-06T11:20:16.310Z,7.06
2022-11-06T11:21:16.761Z,7.15
2022-11-06T11:22:16.391Z,7.10
2022-11-06T11:23:16.937Z,7.15
2022-11-06T11:24:16.599Z,7.10
2022-11-06T11:25:17.076Z,7.12
2022-11-06T11:26:16.544Z,7.23
2022-11-06T11:27:17.016Z,7.34
2022-11-06T11:28:16.700Z,7.20
2022-11-06T11:29:16.418Z,7.26
2022-11-06T11:30:16.895Z,7.26
2022-11-06T11:31:16.325Z,7.29
2022-11-06T11:32:16.964Z,7.35
2022-11-06T11:33:16.389Z,7.45
2022-11-06T11:34:16.857Z,7.41
2022-11-06T11:35:16.350Z,7.34
2022-11-06T11:36:16.778Z,7.38
2022-11-06T11:37:17.241Z,7.38
2022-11-06T11:38:16.996Z,7.45
2022-11-06T11:39:17.089Z,7.54
2022-11-06T11:40:16.565Z,7.55
2022-11-06T11:41:17.029Z,7.61
2022-11-06T11:42:16.947Z,7.62
2022-11-06T11:43:16.913Z,7.65
2022-11-06T11:44:16.385Z,7.71
2022-11-06T11:45:16.864Z,7.71
2022-11-06T11:46:16.289Z,7.66
2022-11-06T11:47:16.738Z,7.69
2022-11-06T11:48:17.380Z,7.71
2022-11-06T11:49:17.029Z,7.77
2022-11-06T11:50:16.505Z,7.74
2022-11-06T11:51:16.976Z,7.66
2022-11-06T11:52:16.497Z,7.55
2022-11-06T11:53:17.007Z,7.57
2022-11-06T11:54:16.489Z,7.59
2022-11-06T11:55:16.947Z,7.68
2022-11-06T11:56:22.820Z,7.65
2022-11-06T11:57:16.893Z,7.77
2022-11-06T11:58:16.521Z,7.62
2022-11-06T11:59:17.095Z,7.64
2022-11-06T12:00:16.549Z,7.65
2022-11-06T12:01:17.023Z,7.69
2022-11-06T12:02:18.978Z,7.69
2022-11-06T12:03:16.818Z,7.69
2022-11-06T12:04:16.361Z,7.77
2022-11-06T12:05:16.816Z,7.66
2022-11-06T12:06:17.242Z,7.72
2022-11-06T12:07:16.732Z,7.72
2022-11-06T12:08:17.236Z,7.75
2022-11-06T12:09:16.716Z,7.82
2022-11-06T12:10:17.251Z,7.81
2022-11-06T12:11:16.725Z,7.72
2022-11-06T12:12:17.248Z,7.53
2022-11-06T12:13:16.742Z,7.53
2022-11-06T12:14:17.238Z,7.47
2022-11-06T12:15:16.686Z,7.50
2022-11-06T12:16:17.131Z,7.61
2022-11-06T12:17:16.601Z,7.55
2022-11-06T12:18:17.205Z,7.62
2022-11-06T12:19:16.877Z,7.61
2022-11-06T12:20:16.377Z,7.62
2022-11-06T12:21:16.841Z,7.64
2022-11-06T12:22:16.901Z,7.57
2022-11-06T12:23:16.391Z,7.65
2022-11-06T12:24:16.881Z,7.59
2022-11-06T12:25:16.328Z,7.65
2022-11-06T12:26:16.784Z,7.69
2022-11-06T12:27:17.292Z,7.69
2022-11-06T12:28:16.880Z,7.71
2022-11-06T12:29:16.549Z,7.75
2022-11-06T12:30:16.987Z,7.75
2022-11-06T12:31:16.404Z,7.74
2022-11-06T12:32:16.588Z,7.68
2022-11-06T12:33:17.055Z,7.69
2022-11-06T12:34:17.780Z,7.78
2022-11-06T12:35:16.325Z,7.84
2022-11-06T12:36:16.801Z,7.95
2022-11-06T12:37:17.277Z,7.90
2022-11-06T12:38:17.119Z,7.90
2022-11-06T12:39:17.235Z,7.98
2022-11-06T12:40:18.369Z,7.87
2022-11-06T12:41:16.403Z,7.87
2022-11-06T12:42:16.623Z,8.04
2022-11-06T12:43:17.095Z,7.90
2022-11-06T12:44:16.535Z,7.92
2022-11-06T12:45:16.960Z,7.85
2022-11-06T12:46:16.388Z,7.82
2022-11-06T12:47:16.820Z,7.93
2022-11-06T12:48:17.309Z,7.86
2022-11-06T12:49:16.840Z,8.06
2022-11-06T12:50:17.305Z,7.98
2022-11-06T12:51:16.788Z,7.99
2022-11-06T12:52:16.761Z,7.93
2022-11-06T12:53:17.265Z,8.00
2022-11-06T12:54:16.761Z,8.00
2022-11-06T12:55:17.265Z,8.12
2022-11-06T12:56:16.751Z,8.05
2022-11-06T12:57:17.266Z,7.99
2022-11-06T12:58:16.989Z,8.06
2022-11-06T12:59:16.720Z,8.05
2022-11-06T13:00:17.174Z,8.17
2022-11-06T13:01:16.651Z,8.20
2022-11-06T13:02:16.426Z,8.14
2022-11-06T13:03:17.239Z,8.09
2022-11-06T13:04:16.672Z,8.12
2022-11-06T13:05:17.146Z,8.10
2022-11-06T13:06:17.006Z,8.05
2022-11-06T13:07:16.459Z,8.05
2022-11-06T13:08:17.196Z,8.21
2022-11-06T13:09:17.298Z,8.23
2022-11-06T13:10:16.754Z,8.36
2022-11-06T13:11:17.232Z,8.26
2022-11-06T13:12:16.783Z,8.21
2022-11-06T13:13:17.269Z,8.21
2022-11-06T13:14:16.688Z,8.23
2022-11-06T13:15:17.125Z,8.27
2022-11-06T13:16:16.578Z,8.19
2022-11-06T13:17:17.015Z,8.11
2022-11-06T13:18:16.638Z,8.08